Time;durP1;ratioP1;P1;durP2;ratioP2;P2;SDS_P1;SDS_P2;PMS_P1;PMS_P2;Temp;Humidity;BMP_temperature;BMP_pressure;BME280_temperature;BME280_humidity;BME280_pressure;Samples;Min_cycle;Max_cycle;Signal;HPM_P1;HPM_P2
2021/04/27 00:00:19;;;;;;;3.10;2.80;;;6.30;56.90;;;;;;5071339;28;20186;-87
2021/04/27 00:02:44;;;;;;;3.03;2.73;;;6.30;57.80;;;;;;5072153;28;20204;-87
2021/04/27 00:05:14;;;;;;;3.60;2.53;;;6.20;58.20;;;;;;5066608;28;20975;-87
2021/04/27 00:07:40;;;;;;;3.50;3.30;;;6.20;58.10;;;;;;5072366;28;20322;-88
2021/04/27 00:10:09;;;;;;;3.10;2.20;;;6.20;57.40;;;;;;5067666;28;20791;-88
2021/04/27 00:12:35;;;;;;;2.97;2.70;;;6.10;57.50;;;;;;5069085;28;20468;-87
2021/04/27 00:15:01;;;;;;;5.10;2.70;;;6.10;58.70;;;;;;5074204;28;20552;-90
2021/04/27 00:17:27;;;;;;;3.07;2.77;;;6.00;59.80;;;;;;5071542;28;20588;-88
2021/04/27 00:19:52;;;;;;;3.23;2.73;;;6.00;60.80;;;;;;5070794;28;20270;-88
2021/04/27 00:22:18;;;;;;;3.33;3.00;;;5.90;62.60;;;;;;5073797;28;20534;-86
2021/04/27 00:24:44;;;;;;;3.80;2.43;;;5.90;63.30;;;;;;5072964;28;20196;-87
2021/04/27 00:27:09;;;;;;;2.90;2.70;;;5.80;63.80;;;;;;5073135;28;20826;-87
2021/04/27 00:29:35;;;;;;;2.13;2.03;;;5.80;65.50;;;;;;5073549;28;20289;-90
2021/04/27 00:32:01;;;;;;;3.63;2.77;;;5.80;63.10;;;;;;5073498;28;20187;-89
2021/04/27 00:34:26;;;;;;;6.50;2.87;;;5.70;63.20;;;;;;5067767;28;20250;-86
2021/04/27 00:36:53;;;;;;;3.90;2.40;;;5.80;60.90;;;;;;5069330;28;20650;-89
2021/04/27 00:39:19;;;;;;;2.57;2.37;;;5.80;62.50;;;;;;5068234;28;20197;-88
2021/04/27 00:41:45;;;;;;;2.97;2.67;;;5.70;65.30;;;;;;5068739;28;20435;-88
2021/04/27 00:44:11;;;;;;;2.63;2.27;;;5.60;67.20;;;;;;5075628;28;20225;-88
2021/04/27 00:46:40;;;;;;;2.30;2.07;;;5.50;68.20;;;;;;5068528;28;20271;-88
2021/04/27 00:49:09;;;;;;;3.80;2.47;;;5.30;69.80;;;;;;5068302;28;20185;-88
2021/04/27 00:51:35;;;;;;;5.13;2.83;;;5.30;73.10;;;;;;5072895;28;20539;-89
2021/04/27 00:54:03;;;;;;;3.80;2.80;;;5.10;76.30;;;;;;5069405;28;20297;-89
2021/04/27 00:56:30;;;;;;;3.07;2.60;;;5.00;79.30;;;;;;5065519;28;20205;-88
2021/04/27 00:58:56;;;;;;;3.13;2.67;;;4.80;80.00;;;;;;5066098;28;21024;-88
2021/04/27 01:01:22;;;;;;;2.60;2.40;;;4.70;82.30;;;;;;5068279;28;20445;-89
2021/04/27 01:03:47;;;;;;;3.70;2.47;;;4.70;84.20;;;;;;5070534;28;20465;-88
2021/04/27 01:06:13;;;;;;;5.93;2.53;;;4.70;83.50;;;;;;5061375;28;20776;-88
2021/04/27 01:08:54;;;;;;;4.57;2.73;;;4.80;83.40;;;;;;5071840;28;20207;-89
2021/04/27 01:12:06;;;;;;;6.60;3.20;;;4.80;82.90;;;;;;5073321;28;20522;-88
2021/04/27 01:14:38;;;;;;;3.40;2.47;;;4.80;83.20;;;;;;5052046;28;20719;-89
2021/04/27 01:17:17;;;;;;;2.43;2.23;;;4.90;82.50;;;;;;5070354;28;20449;-88
2021/04/27 01:19:45;;;;;;;5.10;2.60;;;4.90;82.30;;;;;;5077189;28;20482;-88
2021/04/27 01:22:19;;;;;;;3.30;2.43;;;5.00;82.70;;;;;;5068351;28;20455;-87
2021/04/27 01:24:54;;;;;;;3.93;2.20;;;4.90;84.30;;;;;;5063000;28;20456;-88
2021/04/27 01:27:21;;;;;;;4.07;3.00;;;4.90;84.50;;;;;;5077731;28;20446;-89
2021/04/27 01:29:47;;;;;;;3.30;2.50;;;4.80;85.70;;;;;;5069627;28;20448;-89
2021/04/27 01:32:13;;;;;;;5.27;3.17;;;4.70;85.90;;;;;;5090503;27;20441;-89
2021/04/27 01:34:43;;;;;;;2.97;2.67;;;4.70;86.30;;;;;;5068577;28;20806;-88
2021/04/27 01:37:11;;;;;;;2.57;2.30;;;4.60;87.70;;;;;;5074732;28;20448;-88
2021/04/27 01:39:37;;;;;;;3.10;2.60;;;4.50;88.90;;;;;;5069813;28;20441;-89
2021/04/27 01:42:05;;;;;;;2.50;2.30;;;4.40;90.30;;;;;;5066225;28;20457;-89
2021/04/27 01:44:33;;;;;;;2.73;2.43;;;4.30;89.50;;;;;;5065101;28;20487;-89
2021/04/27 01:47:00;;;;;;;2.63;2.27;;;4.30;90.10;;;;;;5072781;28;20479;-89
2021/04/27 01:49:26;;;;;;;2.40;2.20;;;4.20;90.60;;;;;;5067362;28;20440;-90
2021/04/27 01:51:52;;;;;;;2.27;2.07;;;4.20;90.30;;;;;;5069695;28;20994;-89
2021/04/27 01:54:22;;;;;;;4.20;2.80;;;4.20;90.40;;;;;;5068064;28;20866;-87
2021/04/27 01:56:48;;;;;;;2.83;2.60;;;4.20;90.20;;;;;;5071919;28;20526;-88
2021/04/27 01:59:14;;;;;;;3.80;2.53;;;4.20;90.60;;;;;;5061066;28;20614;-88
2021/04/27 02:01:40;;;;;;;3.90;2.67;;;4.20;91.10;;;;;;5064405;28;20178;-88
2021/04/27 02:04:05;;;;;;;2.70;2.50;;;4.10;91.50;;;;;;5067011;28;20886;-87
2021/04/27 02:06:31;;;;;;;2.80;2.60;;;4.10;91.30;;;;;;5062961;28;20190;-87
2021/04/27 02:09:07;;;;;;;4.77;2.50;;;4.00;90.80;;;;;;5064530;28;20181;-88
2021/04/27 02:11:41;;;;;;;2.90;2.10;;;4.10;89.80;;;;;;5069781;28;20186;-88
2021/04/27 02:14:10;;;;;;;2.60;2.40;;;4.20;89.20;;;;;;5065873;28;20440;-87
2021/04/27 02:16:58;;;;;;;3.53;2.50;;;4.30;89.80;;;;;;5068432;28;20459;-88
2021/04/27 02:19:25;;;;;;;3.40;2.63;;;4.30;90.30;;;;;;5065474;28;20813;-88
2021/04/27 02:21:56;;;;;;;4.43;2.43;;;4.30;91.30;;;;;;5059085;28;20474;-87
2021/04/27 02:24:23;;;;;;;8.73;2.97;;;4.20;92.20;;;;;;5071120;28;20946;-88
2021/04/27 02:26:57;;;;;;;3.10;2.80;;;4.00;92.80;;;;;;5062872;28;20476;-88
2021/04/27 02:30:08;;;;;;;3.93;2.70;;;3.80;93.00;;;;;;5067554;28;20451;-89
2021/04/27 02:32:34;;;;;;;2.93;2.13;;;3.80;93.30;;;;;;5067818;28;20447;-88
2021/04/27 02:35:02;;;;;;;4.00;2.30;;;3.80;93.60;;;;;;5065488;28;20441;-88
2021/04/27 02:37:27;;;;;;;2.50;2.30;;;3.80;93.60;;;;;;5065077;28;20479;-89
2021/04/27 02:39:54;;;;;;;2.40;2.20;;;3.80;93.60;;;;;;5063237;28;20428;-90
2021/04/27 02:42:20;;;;;;;3.07;2.10;;;3.80;93.60;;;;;;5065790;28;20434;-89
2021/04/27 02:44:46;;;;;;;2.40;2.20;;;3.70;93.40;;;;;;5073920;28;21094;-89
2021/04/27 02:47:13;;;;;;;2.23;2.03;;;3.80;93.00;;;;;;5065247;28;20510;-90
2021/04/27 02:49:53;;;;;;;4.13;2.30;;;3.90;92.60;;;;;;5060288;28;20452;-90
2021/04/27 02:52:19;;;;;;;2.60;2.40;;;4.00;91.70;;;;;;5052821;28;20495;-90
2021/04/27 02:54:45;;;;;;;2.87;2.40;;;4.00;92.10;;;;;;5066904;28;20495;-90
2021/04/27 02:57:12;;;;;;;2.83;2.23;;;4.00;93.00;;;;;;5071103;28;20200;-91
2021/04/27 02:59:37;;;;;;;3.50;2.50;;;4.10;92.90;;;;;;5063192;28;20305;-92
2021/04/27 03:02:03;;;;;;;2.50;2.30;;;3.90;93.80;;;;;;5064163;28;20440;-89
2021/04/27 03:04:29;;;;;;;4.33;2.37;;;3.80;94.20;;;;;;5069537;28;20279;-90
2021/04/27 03:06:54;;;;;;;3.60;2.30;;;3.90;93.80;;;;;;5064200;28;20278;-90
2021/04/27 03:09:27;;;;;;;2.90;2.60;;;3.90;94.00;;;;;;5070080;28;20198;-90
2021/04/27 03:11:52;;;;;;;3.83;2.40;;;3.90;94.40;;;;;;5067591;28;20197;-89
2021/04/27 03:14:18;;;;;;;3.20;2.80;;;3.90;94.10;;;;;;5071210;28;20467;-88
2021/04/27 03:16:44;;;;;;;2.67;2.47;;;3.80;94.40;;;;;;5079595;28;20659;-89
2021/04/27 03:19:09;;;;;;;2.40;2.20;;;3.80;94.40;;;;;;5070772;28;20636;-89
2021/04/27 03:21:35;;;;;;;2.33;2.10;;;3.80;93.80;;;;;;5070564;28;20188;-89
2021/04/27 03:24:01;;;;;;;2.53;2.30;;;3.90;93.30;;;;;;5073495;28;20314;-89
2021/04/27 03:26:27;;;;;;;3.63;2.43;;;4.10;92.80;;;;;;5073007;28;20220;-89
2021/04/27 03:28:52;;;;;;;2.87;2.63;;;4.20;93.10;;;;;;5067945;28;20533;-89
2021/04/27 03:31:18;;;;;;;2.93;2.63;;;4.30;92.70;;;;;;5074181;28;20186;-87
2021/04/27 03:33:44;;;;;;;3.63;2.30;;;4.30;93.10;;;;;;5078272;28;20721;-87
2021/04/27 03:36:10;;;;;;;5.13;2.30;;;4.40;92.60;;;;;;5070868;28;20942;-90
2021/04/27 03:38:36;;;;;;;2.83;2.30;;;4.40;92.50;;;;;;5076870;28;20446;-89
2021/04/27 03:41:02;;;;;;;2.60;2.40;;;4.40;92.40;;;;;;5082045;28;20843;-89
2021/04/27 03:43:28;;;;;;;2.30;2.10;;;4.40;92.20;;;;;;5071885;28;21352;-89
2021/04/27 03:45:54;;;;;;;2.40;2.20;;;4.40;92.50;;;;;;5081564;28;20431;-90
2021/04/27 03:48:21;;;;;;;3.03;2.40;;;4.40;92.50;;;;;;5066986;28;20448;-89
2021/04/27 03:50:47;;;;;;;3.77;2.50;;;4.40;92.10;;;;;;5062800;28;20433;-89
2021/04/27 03:53:13;;;;;;;2.57;2.37;;;4.30;93.10;;;;;;5067520;28;20483;-90
2021/04/27 03:55:42;;;;;;;3.90;2.50;;;4.30;93.30;;;;;;5067050;28;20444;-88
2021/04/27 03:58:17;;;;;;;2.67;2.47;;;4.30;92.90;;;;;;5080552;28;21559;-91
2021/04/27 04:00:53;;;;;;;4.57;2.90;;;4.20;93.30;;;;;;5068602;28;20976;-91
2021/04/27 04:03:19;;;;;;;3.30;2.70;;;4.10;93.80;;;;;;5077325;28;20491;-90
2021/04/27 04:05:44;;;;;;;3.10;2.80;;;4.10;93.60;;;;;;5077323;28;20209;-89
2021/04/27 04:08:10;;;;;;;3.17;2.87;;;4.00;94.20;;;;;;5069112;28;20183;-89
2021/04/27 04:10:36;;;;;;;2.80;2.13;;;4.00;94.30;;;;;;5066075;28;20722;-90
2021/04/27 04:13:01;;;;;;;3.00;2.70;;;4.00;94.30;;;;;;5072817;28;20541;-90
2021/04/27 04:15:27;;;;;;;3.40;2.70;;;4.00;94.40;;;;;;5078891;28;20179;-89
2021/04/27 04:17:53;;;;;;;3.07;2.70;;;4.00;94.60;;;;;;5075479;28;20287;-89
2021/04/27 04:20:24;;;;;;;2.93;2.60;;;4.00;94.20;;;;;;5070322;28;20175;-90
2021/04/27 04:22:51;;;;;;;3.50;2.50;;;4.10;94.30;;;;;;5078097;28;20749;-89
2021/04/27 04:25:19;;;;;;;3.20;2.67;;;4.00;94.70;;;;;;5077130;28;20445;-90
2021/04/27 04:27:47;;;;;;;2.90;2.70;;;4.00;95.40;;;;;;5077344;28;20523;-89
2021/04/27 04:30:17;;;;;;;3.57;3.00;;;4.00;95.70;;;;;;5073979;28;20531;-89
2021/04/27 04:32:43;;;;;;;4.47;3.00;;;3.90;95.60;;;;;;5072994;28;20502;-89
2021/04/27 04:35:11;;;;;;;2.90;2.50;;;3.90;96.10;;;;;;5084125;28;20465;-89
2021/04/27 04:37:37;;;;;;;6.37;2.90;;;3.80;96.00;;;;;;5077111;28;20956;-90
2021/04/27 04:40:08;;;;;;;4.97;2.60;;;3.90;95.80;;;;;;5080890;28;20470;-91
2021/04/27 04:42:37;;;;;;;3.73;3.00;;;4.00;95.70;;;;;;5081010;28;20476;-89
2021/04/27 04:45:12;;;;;;;4.63;2.63;;;4.00;95.30;;;;;;5064490;28;20456;-90
2021/04/27 04:50:24;;;;;;;3.17;2.93;;;3.90;95.80;;;;;;5082974;28;20473;-89
2021/04/27 04:52:52;;;;;;;4.77;2.80;;;4.00;96.20;;;;;;5080646;28;20959;-89
2021/04/27 04:55:21;;;;;;;4.30;3.17;;;4.20;96.60;;;;;;5081129;28;20530;-90
2021/04/27 04:57:47;;;;;;;3.00;2.80;;;4.00;96.90;;;;;;5079674;28;20451;-88
2021/04/27 05:00:16;;;;;;;3.57;3.13;;;4.10;96.70;;;;;;5079590;28;20479;-89
2021/04/27 05:02:45;;;;;;;3.77;3.17;;;4.10;97.30;;;;;;5083370;28;20534;-90
2021/04/27 05:05:25;;;;;;;3.17;2.80;;;4.20;97.30;;;;;;5082951;28;20436;-92
2021/04/27 05:08:42;;;;;;;3.10;2.80;;;4.20;96.80;;;;;;5083478;28;20459;-88
2021/04/27 05:11:13;;;;;;;3.30;2.97;;;4.30;97.20;;;;;;5078843;28;20443;-90
2021/04/27 05:13:43;;;;;;;3.00;2.80;;;4.50;97.30;;;;;;5059461;28;20575;-89
2021/04/27 05:16:34;;;;;;;4.33;3.20;;;4.60;97.10;;;;;;5077384;28;20455;-91
2021/04/27 05:19:02;;;;;;;4.60;3.73;;;5.10;97.50;;;;;;5081567;28;20466;-91
2021/04/27 05:21:31;;;;;;;3.67;3.27;;;4.30;96.30;;;;;;5087002;28;20437;-89
2021/04/27 05:23:58;;;;;;;5.40;4.03;;;4.90;96.20;;;;;;5073235;28;20511;-90
2021/04/27 05:26:24;;;;;;;3.93;3.40;;;4.90;95.20;;;;;;5080706;28;20436;-90
2021/04/27 05:28:50;;;;;;;4.50;4.10;;;5.00;94.90;;;;;;5083752;28;20444;-89
2021/04/27 05:31:18;;;;;;;4.90;3.30;;;5.00;94.60;;;;;;5080428;28;20412;-92
2021/04/27 05:33:46;;;;;;;4.13;3.47;;;5.20;95.60;;;;;;5085057;28;20934;-90
2021/04/27 05:36:20;;;;;;;8.63;4.17;;;5.40;95.90;;;;;;5076971;28;20190;-89
2021/04/27 05:38:57;;;;;;;5.23;4.00;;;5.50;95.60;;;;;;5078789;28;20455;-90
2021/04/27 05:41:46;;;;;;;7.10;3.80;;;5.70;96.20;;;;;;5074831;28;20522;-91
2021/04/27 05:44:14;;;;;;;4.80;4.40;;;5.90;94.90;;;;;;5080240;28;21396;-91
2021/04/27 05:49:28;;;;;;;5.47;4.97;;;6.50;94.60;;;;;;5075287;28;20198;-89
2021/04/27 05:54:31;;;;;;;6.33;3.63;;;6.60;93.90;;;;;;5077679;28;20959;-90
2021/04/27 05:57:00;;;;;;;5.13;4.27;;;6.80;93.90;;;;;;5074255;28;20998;-89
2021/04/27 05:59:26;;;;;;;4.70;4.00;;;7.00;92.80;;;;;;5077462;28;21040;-89
2021/04/27 06:02:02;;;;;;;8.10;3.57;;;6.90;92.10;;;;;;5076500;28;20456;-89
2021/04/27 06:04:27;;;;;;;5.00;3.93;;;7.20;91.50;;;;;;5073072;28;20496;-89
2021/04/27 06:06:55;;;;;;;4.73;3.97;;;7.30;90.70;;;;;;5081455;28;21548;-91
2021/04/27 06:09:21;;;;;;;4.67;4.17;;;7.40;91.50;;;;;;5077343;28;20205;-89
2021/04/27 06:11:49;;;;;;;6.10;4.20;;;7.50;90.00;;;;;;5079301;28;20437;-88
2021/04/27 06:14:15;;;;;;;3.73;3.43;;;7.60;88.90;;;;;;5074659;28;20485;-88
2021/04/27 06:16:41;;;;;;;5.07;4.57;;;7.70;87.30;;;;;;5075165;28;20483;-88
2021/04/27 06:19:15;;;;;;;5.03;4.53;;;7.80;86.10;;;;;;5080954;28;20679;-89
2021/04/27 06:24:44;;;;;;;6.47;4.33;;;7.80;87.80;;;;;;5075552;28;20480;-88
2021/04/27 06:27:11;;;;;;;9.03;5.70;;;7.80;90.00;;;;;;5078519;28;20444;-89
2021/04/27 06:29:41;;;;;;;6.30;4.87;;;7.90;87.50;;;;;;5072795;28;20205;-88
2021/04/27 06:32:07;;;;;;;4.47;4.07;;;7.80;89.00;;;;;;5078102;28;20437;-90
2021/04/27 06:34:34;;;;;;;5.67;4.40;;;7.90;89.50;;;;;;5076888;28;20201;-89
2021/04/27 06:37:02;;;;;;;4.93;4.30;;;8.00;87.80;;;;;;5079743;28;20945;-91
2021/04/27 06:39:34;;;;;;;4.90;4.23;;;8.10;87.30;;;;;;5075808;28;20223;-90
2021/04/27 06:42:02;;;;;;;5.20;4.40;;;8.10;86.80;;;;;;5063364;28;20535;-91
2021/04/27 06:44:27;;;;;;;5.70;4.30;;;8.30;88.40;;;;;;5078991;28;20567;-93
2021/04/27 06:47:43;;;;;;;5.63;4.80;;;8.30;87.60;;;;;;5080644;28;20859;-90
2021/04/27 06:50:27;;;;;;;5.50;4.73;;;8.30;88.30;;;;;;5071144;28;20670;-91
2021/04/27 06:52:52;;;;;;;9.97;6.53;;;8.40;88.60;;;;;;5061635;28;21402;-91
2021/04/27 06:55:39;;;;;;;10.07;7.43;;;8.50;87.20;;;;;;5060727;28;20465;-93
2021/04/27 06:58:16;;;;;;;5.47;4.73;;;8.70;85.80;;;;;;5080626;28;20538;-90
2021/04/27 07:00:43;;;;;;;10.13;4.70;;;8.90;86.50;;;;;;5073957;28;20473;-91
2021/04/27 07:03:13;;;;;;;8.27;4.50;;;9.00;84.80;;;;;;5080565;28;20480;-91
2021/04/27 07:05:43;;;;;;;5.30;4.80;;;9.20;83.30;;;;;;5079328;28;20485;-91
2021/04/27 07:08:31;;;;;;;8.23;4.57;;;9.40;82.90;;;;;;5083901;28;20425;-92
2021/04/27 07:11:33;;;;;;;6.97;4.87;;;9.10;83.70;;;;;;5081054;28;20853;-91
2021/04/27 07:14:10;;;;;;;5.27;4.77;;;9.40;84.50;;;;;;5083265;28;20460;-95
2021/04/27 07:16:38;;;;;;;6.40;5.20;;;9.60;86.50;;;;;;5087520;28;20442;-89
2021/04/27 07:19:05;;;;;;;7.00;5.37;;;9.20;87.90;;;;;;5083536;28;20865;-91
2021/04/27 07:21:33;;;;;;;8.40;5.47;;;9.20;84.70;;;;;;5081485;28;20906;-91
2021/04/27 07:24:18;;;;;;;5.77;5.10;;;9.20;85.80;;;;;;5081139;28;20486;-94
2021/04/27 07:26:46;;;;;;;8.10;5.23;;;9.40;85.60;;;;;;5081261;28;20883;-94
2021/04/27 07:29:14;;;;;;;6.40;5.37;;;9.60;84.10;;;;;;5065093;28;20544;-90
2021/04/27 07:31:42;;;;;;;5.90;5.37;;;9.80;82.90;;;;;;5084111;28;20423;-91
2021/04/27 07:34:08;;;;;;;7.17;5.40;;;9.90;82.90;;;;;;5080014;28;20435;-92
2021/04/27 07:36:38;;;;;;;5.80;5.13;;;10.00;79.50;;;;;;5079948;28;20860;-91
2021/04/27 07:39:09;;;;;;;7.17;5.10;;;10.30;80.80;;;;;;5084131;28;20462;-93
2021/04/27 07:41:35;;;;;;;7.07;5.50;;;10.60;79.00;;;;;;5078995;28;20672;-89
2021/04/27 07:44:05;;;;;;;7.80;5.27;;;10.50;76.10;;;;;;5079727;28;20470;-95
2021/04/27 07:46:59;;;;;;;5.87;5.27;;;10.70;78.00;;;;;;5070855;28;20453;-96
2021/04/27 08:02:33;;;;;;;7.93;5.80;;;11.60;70.90;;;;;;4991312;28;20471;-90
2021/04/27 08:05:12;;;;;;;6.93;5.90;;;11.70;71.20;;;;;;4997170;28;20474;-90
2021/04/27 08:07:39;;;;;;;6.90;6.20;;;11.70;68.60;;;;;;4996026;28;20467;-91
2021/04/27 08:10:07;;;;;;;6.57;5.90;;;11.50;66.40;;;;;;4992334;28;20454;-94
2021/04/27 08:12:33;;;;;;;8.83;5.70;;;11.70;70.60;;;;;;4992456;28;20489;-92
2021/04/27 08:14:58;;;;;;;9.10;5.87;;;11.60;70.10;;;;;;4975479;28;20491;-90
2021/04/27 08:17:27;;;;;;;6.87;6.00;;;11.70;69.00;;;;;;4998845;28;20459;-89
2021/04/27 08:19:53;;;;;;;7.47;6.47;;;12.00;71.60;;;;;;4997157;28;20792;-90
2021/04/27 08:22:26;;;;;;;6.83;6.03;;;11.90;67.10;;;;;;4992538;28;20464;-92
2021/04/27 08:24:53;;;;;;;7.13;6.07;;;12.10;73.30;;;;;;4994099;28;20883;-93
2021/04/27 08:27:59;;;;;;;8.57;6.10;;;12.60;70.40;;;;;;4995755;28;20435;-93
2021/04/27 08:30:36;;;;;;;7.23;6.53;;;13.00;68.60;;;;;;4997471;28;20216;-94
2021/04/27 08:33:02;;;;;;;10.20;6.70;;;12.50;70.10;;;;;;4990678;28;20461;-92
2021/04/27 08:35:31;;;;;;;7.07;6.40;;;12.50;69.40;;;;;;4994940;28;20458;-91
2021/04/27 08:37:56;;;;;;;8.13;7.30;;;12.40;65.90;;;;;;5002183;28;20200;-93
2021/04/27 08:40:23;;;;;;;7.27;5.80;;;12.50;67.60;;;;;;4999812;28;21790;-92
2021/04/27 08:42:50;;;;;;;7.30;6.57;;;12.80;65.30;;;;;;4993433;28;20200;-91
2021/04/27 08:45:20;;;;;;;10.60;7.57;;;13.00;69.90;;;;;;4995368;28;21502;-91
2021/04/27 08:47:48;;;;;;;8.53;7.10;;;13.30;68.40;;;;;;4994702;28;20459;-88
2021/04/27 08:50:17;;;;;;;9.63;7.40;;;13.30;61.80;;;;;;4991043;28;20478;-89
2021/04/27 08:52:54;;;;;;;9.53;6.80;;;13.00;60.40;;;;;;4997049;28;20563;-93
2021/04/27 08:55:20;;;;;;;7.97;6.53;;;13.20;63.40;;;;;;4990243;28;20454;-93
2021/04/27 08:57:48;;;;;;;8.33;6.60;;;13.60;64.70;;;;;;4991414;28;20443;-92
2021/04/27 09:00:18;;;;;;;7.13;6.43;;;13.90;65.30;;;;;;4996724;28;20204;-91
2021/04/27 09:02:52;;;;;;;8.43;7.53;;;14.00;64.40;;;;;;4993827;28;20464;-91
2021/04/27 09:08:43;;;;;;;8.97;7.33;;;14.70;63.00;;;;;;4991480;28;20453;-91
2021/04/27 09:11:31;;;;;;;9.50;7.23;;;14.70;62.50;;;;;;4996292;28;20455;-90
2021/04/27 09:14:19;;;;;;;8.30;6.83;;;14.60;63.90;;;;;;4979911;28;20815;-90
2021/04/27 09:16:54;;;;;;;8.17;7.27;;;14.40;57.30;;;;;;4990623;28;20447;-91
2021/04/27 09:19:35;;;;;;;7.57;6.97;;;14.30;57.70;;;;;;4994358;28;20447;-90
2021/04/27 09:22:12;;;;;;;8.10;7.40;;;14.60;59.30;;;;;;4997059;28;20435;-91
2021/04/27 09:24:47;;;;;;;8.53;7.73;;;14.70;59.70;;;;;;5000022;28;20475;-95
2021/04/27 09:27:27;;;;;;;11.23;7.50;;;14.70;58.40;;;;;;5000086;28;20626;-92
2021/04/27 09:30:22;;;;;;;9.43;7.67;;;14.70;59.10;;;;;;4995678;28;20460;-92
2021/04/27 09:32:58;;;;;;;8.97;7.83;;;14.80;56.80;;;;;;5000256;28;20999;-94
2021/04/27 09:35:43;;;;;;;8.97;8.17;;;15.40;54.30;;;;;;4991620;28;20493;-90
2021/04/27 09:38:18;;;;;;;12.90;8.87;;;15.20;56.10;;;;;;4992652;28;20459;-92
2021/04/27 09:41:09;;;;;;;9.23;8.33;;;15.60;55.70;;;;;;4995439;28;20459;-92
2021/04/27 09:44:20;;;;;;;8.60;7.70;;;15.60;53.80;;;;;;4990047;28;20480;-92
2021/04/27 09:47:11;;;;;;;8.83;7.87;;;15.30;55.80;;;;;;4990299;28;21493;-92
2021/04/27 09:49:37;;;;;;;10.40;8.30;;;15.60;54.40;;;;;;4982903;28;20531;-90
2021/04/27 09:52:11;;;;;;;12.10;8.33;;;15.90;53.90;;;;;;4989268;28;20542;-90
2021/04/27 09:55:07;;;;;;;9.00;8.10;;;15.90;54.70;;;;;;4996273;28;20479;-89
2021/04/27 09:57:39;;;;;;;9.87;8.00;;;16.20;52.20;;;;;;4992207;28;20448;-88
2021/04/27 10:00:39;;;;;;;9.70;7.73;;;16.00;51.70;;;;;;4986967;28;20455;-88
2021/04/27 10:03:07;;;;;;;10.47;8.30;;;16.20;54.10;;;;;;4989981;28;20447;-89
2021/04/27 10:05:35;;;;;;;9.87;8.00;;;16.10;55.00;;;;;;4991616;28;20505;-87
2021/04/27 10:08:01;;;;;;;10.50;8.10;;;16.00;51.40;;;;;;4990153;28;20468;-91
2021/04/27 10:10:34;;;;;;;10.40;9.30;;;15.90;54.20;;;;;;4993022;28;20462;-88
2021/04/27 10:13:01;;;;;;;9.63;8.63;;;16.00;52.70;;;;;;4988954;28;20534;-88
2021/04/27 10:15:31;;;;;;;17.10;10.40;;;16.00;50.20;;;;;;4987393;28;20789;-85
2021/04/27 10:17:59;;;;;;;9.47;8.37;;;16.00;49.60;;;;;;4992380;28;20478;-87
2021/04/27 10:20:28;;;;;;;9.63;8.73;;;16.40;53.10;;;;;;5006571;28;20856;-88
2021/04/27 10:22:54;;;;;;;9.90;8.90;;;16.60;52.20;;;;;;4990388;28;20490;-91
2021/04/27 10:25:25;;;;;;;9.40;8.50;;;16.80;50.80;;;;;;4990302;28;20452;-91
2021/04/27 10:28:05;;;;;;;9.43;8.50;;;17.00;51.00;;;;;;4997502;28;20490;-90
2021/04/27 10:30:32;;;;;;;9.20;8.27;;;17.90;51.00;;;;;;4988969;28;20546;-89
2021/04/27 10:33:01;;;;;;;9.10;7.80;;;17.20;47.20;;;;;;4989157;28;20463;-86
2021/04/27 10:35:37;;;;;;;9.50;8.57;;;17.20;48.50;;;;;;4992519;28;20513;-88
2021/04/27 10:38:16;;;;;;;11.13;7.90;;;16.90;45.20;;;;;;4990450;28;20436;-92
2021/04/27 10:43:44;;;;;;;13.33;8.50;;;17.50;49.50;;;;;;4996082;28;20792;-92
2021/04/27 10:46:19;;;;;;;9.43;7.67;;;17.50;45.90;;;;;;4991761;28;21889;-93
2021/04/27 10:48:48;;;;;;;9.33;8.30;;;17.90;48.10;;;;;;4992817;28;20455;-92
2021/04/27 10:51:20;;;;;;;8.70;7.90;;;18.00;46.80;;;;;;4991159;28;20432;-92
2021/04/27 10:54:32;;;;;;;12.87;8.83;;;18.40;42.30;;;;;;4996350;28;20476;-94
2021/04/27 10:57:04;;;;;;;9.50;8.20;;;18.10;43.90;;;;;;4989069;28;20451;-92
2021/04/27 10:59:49;;;;;;;8.40;7.63;;;18.00;47.00;;;;;;4991525;28;20447;-91
2021/04/27 11:02:26;;;;;;;15.13;9.40;;;18.30;48.00;;;;;;4992933;28;20455;-92
2021/04/27 11:05:18;;;;;;;10.03;7.80;;;18.20;44.00;;;;;;4995116;28;20448;-92
2021/04/27 11:07:46;;;;;;;9.27;8.40;;;18.00;44.80;;;;;;4994725;28;20482;-93
2021/04/27 11:10:37;;;;;;;8.60;7.80;;;18.20;44.70;;;;;;4990813;28;20440;-96
2021/04/27 11:13:08;;;;;;;9.40;8.40;;;18.40;45.40;;;;;;4995375;28;20467;-92
2021/04/27 11:15:35;;;;;;;10.90;9.13;;;18.60;43.80;;;;;;4990801;28;20800;-92
2021/04/27 11:18:06;;;;;;;10.57;9.30;;;18.20;45.10;;;;;;4994475;28;20815;-90
2021/04/27 11:20:45;;;;;;;9.70;8.80;;;18.50;45.30;;;;;;5006302;28;20447;-89
2021/04/27 11:23:52;;;;;;;11.30;7.93;;;18.50;43.70;;;;;;4996173;28;20444;-91
2021/04/27 11:26:41;;;;;;;9.73;8.10;;;18.60;42.60;;;;;;4993805;28;20443;-92
2021/04/27 11:29:25;;;;;;;9.10;8.20;;;18.60;42.70;;;;;;4990724;28;20451;-93
2021/04/27 11:32:06;;;;;;;9.87;8.87;;;19.10;44.00;;;;;;4997374;28;20518;-93
2021/04/27 11:34:53;;;;;;;9.53;7.83;;;19.10;38.10;;;;;;5002305;28;20487;-93
2021/04/27 11:37:25;;;;;;;9.10;8.13;;;19.30;42.20;;;;;;4992922;28;20462;-95
2021/04/27 11:39:56;;;;;;;9.00;8.20;;;19.50;42.30;;;;;;5000320;28;20459;-92
2021/04/27 11:42:31;;;;;;;10.23;9.17;;;21.30;40.30;;;;;;4994805;28;20448;-93
2021/04/27 11:45:01;;;;;;;11.60;7.73;;;20.10;36.70;;;;;;5003066;28;20439;-93
2021/04/27 11:47:33;;;;;;;9.60;8.70;;;19.80;39.70;;;;;;4996736;28;20455;-93
2021/04/27 11:50:16;;;;;;;8.53;7.33;;;19.10;37.20;;;;;;4997656;28;20459;-93
2021/04/27 11:53:13;;;;;;;9.90;8.37;;;19.20;40.50;;;;;;4995646;28;20876;-94
2021/04/27 11:55:53;;;;;;;8.90;8.10;;;19.30;37.80;;;;;;4997406;28;20542;-95
2021/04/27 11:58:32;;;;;;;7.10;6.40;;;19.50;37.10;;;;;;4999082;28;20495;-94
2021/04/27 12:01:03;;;;;;;11.70;8.50;;;20.10;38.20;;;;;;4997351;28;20459;-94
2021/04/27 12:03:38;;;;;;;7.93;7.13;;;20.00;37.30;;;;;;4995965;28;20467;-91
2021/04/27 12:06:14;;;;;;;8.73;7.93;;;20.30;36.40;;;;;;4997049;28;20498;-93
2021/04/27 12:09:11;;;;;;;9.80;8.40;;;19.90;38.20;;;;;;4994722;28;20462;-94
2021/04/27 12:11:37;;;;;;;10.83;8.23;;;19.50;39.10;;;;;;4999482;28;20574;-94
2021/04/27 12:14:16;;;;;;;9.00;7.80;;;20.10;40.10;;;;;;4996749;28;20499;-93
2021/04/27 12:16:53;;;;;;;8.00;7.30;;;20.00;37.80;;;;;;4996115;28;20467;-92
2021/04/27 12:19:38;;;;;;;;;;;;;;;;;;;;;
2021/04/27 12:22:05;;;;;;;9.53;8.50;;;20.30;38.80;;;;;;4991888;28;20460;-91
2021/04/27 12:24:37;;;;;;;11.33;7.90;;;20.30;35.90;;;;;;4994676;28;20824;-91
2021/04/27 12:27:28;;;;;;;9.57;7.40;;;20.20;35.60;;;;;;4997928;28;20858;-91
2021/04/27 12:30:06;;;;;;;56.40;51.43;;;20.70;42.90;;;;;;4992535;28;20552;-88
2021/04/27 12:32:34;;;;;;;9.07;8.27;;;20.60;34.90;;;;;;4997024;28;20539;-89
2021/04/27 12:35:07;;;;;;;8.43;7.53;;;20.50;36.80;;;;;;4995095;28;20685;-88
2021/04/27 12:37:59;;;;;;;9.27;7.70;;;20.20;32.70;;;;;;4996162;28;20498;-88
2021/04/27 12:40:28;;;;;;;8.00;7.03;;;20.70;36.30;;;;;;4995851;28;20444;-88
2021/04/27 12:43:02;;;;;;;7.30;6.67;;;21.10;34.50;;;;;;4980385;28;21179;-89
2021/04/27 12:45:29;;;;;;;8.13;7.40;;;21.30;31.70;;;;;;4992062;28;20448;-86
2021/04/27 12:48:04;;;;;;;7.07;6.37;;;20.90;31.40;;;;;;4997489;28;20452;-88
2021/04/27 12:50:30;;;;;;;7.63;6.80;;;20.50;31.50;;;;;;4992809;28;20435;-87
2021/04/27 12:52:58;;;;;;;9.47;6.60;;;20.40;30.10;;;;;;4995422;28;20450;-87
2021/04/27 12:55:29;;;;;;;10.70;7.40;;;20.60;33.10;;;;;;4995270;28;20191;-87
2021/04/27 12:58:12;;;;;;;8.07;7.27;;;20.90;29.70;;;;;;4997100;28;20803;-88
2021/04/27 13:00:53;;;;;;;8.00;7.00;;;21.10;30.00;;;;;;4992831;28;20853;-88
2021/04/27 13:03:25;;;;;;;7.70;6.47;;;21.50;31.20;;;;;;4994270;28;20468;-89
2021/04/27 13:05:52;;;;;;;8.10;7.30;;;21.60;32.10;;;;;;4991769;28;20447;-88
2021/04/27 13:08:24;;;;;;;8.50;7.60;;;21.60;32.50;;;;;;4993641;28;20478;-89
2021/04/27 13:10:50;;;;;;;8.20;7.40;;;21.20;31.60;;;;;;4995106;28;20459;-90
2021/04/27 13:13:25;;;;;;;7.53;6.83;;;21.20;31.90;;;;;;4992648;28;20475;-89
2021/04/27 13:15:58;;;;;;;6.97;6.27;;;21.50;33.70;;;;;;4992943;28;20467;-86
2021/04/27 13:18:24;;;;;;;8.07;7.27;;;21.60;30.40;;;;;;5004623;28;20473;-90
2021/04/27 13:20:57;;;;;;;8.00;7.30;;;21.50;30.20;;;;;;4988130;28;20452;-87
2021/04/27 13:23:28;;;;;;;7.27;6.67;;;21.40;29.00;;;;;;4992880;28;21150;-87
2021/04/27 13:26:21;;;;;;;7.83;7.13;;;22.20;31.90;;;;;;4992169;28;20483;-87
2021/04/27 13:28:49;;;;;;;18.07;7.87;;;22.70;30.00;;;;;;4991726;28;20437;-86
2021/04/27 13:31:24;;;;;;;8.37;7.37;;;22.10;31.50;;;;;;4996496;28;20440;-87
2021/04/27 13:33:51;;;;;;;7.03;6.40;;;22.20;31.10;;;;;;4991830;28;20993;-85
2021/04/27 13:36:19;;;;;;;7.87;7.17;;;22.40;30.00;;;;;;4992869;28;20447;-86
2021/04/27 13:38:46;;;;;;;5.90;5.50;;;22.70;29.50;;;;;;4995502;28;20451;-87
2021/04/27 13:41:13;;;;;;;7.50;6.80;;;22.50;27.90;;;;;;4993659;28;20475;-86
2021/04/27 13:43:42;;;;;;;6.40;5.90;;;22.80;29.00;;;;;;4992528;28;20999;-86
2021/04/27 13:46:09;;;;;;;8.20;6.43;;;22.80;30.20;;;;;;4993309;28;20452;-86
2021/04/27 13:48:35;;;;;;;10.40;6.47;;;23.70;27.90;;;;;;4993739;28;20473;-87